Time;durP1;ratioP1;P1;durP2;ratioP2;P2;SDS_P1;SDS_P2;PMS_P1;PMS_P2;Temp;Humidity;BMP_temperature;BMP_pressure;BME280_temperature;BME280_humidity;BME280_pressure;Samples;Min_cycle;Max_cycle;Signal;HPM_P1;HPM_P2
2022/02/08 00:02:12;;;;;;;4.50;2.50;;;;;;;-0.38;100.00;98211.25;5011116;28;20775;-50
2022/02/08 00:04:40;;;;;;;3.80;3.50;;;;;;;-0.42;100.00;98216.72;5011992;28;20283;-49
2022/02/08 00:07:10;;;;;;;2.33;2.23;;;;;;;-0.46;100.00;98221.28;5011669;28;20295;-51
2022/02/08 00:09:38;;;;;;;3.47;2.70;;;;;;;-0.30;100.00;98229.06;4965308;28;20227;-52
2022/02/08 00:12:13;;;;;;;5.27;3.33;;;;;;;-0.22;100.00;98228.56;5016325;28;20311;-48
2022/02/08 00:14:41;;;;;;;5.87;3.20;;;;;;;-0.24;100.00;98233.03;4995268;28;20764;-53
2022/02/08 00:17:09;;;;;;;6.37;4.00;;;;;;;-0.25;100.00;98236.56;4997106;28;20896;-48
2022/02/08 00:19:37;;;;;;;3.30;2.70;;;;;;;-0.33;100.00;98232.66;5011853;28;20315;-53
2022/02/08 00:22:06;;;;;;;4.07;2.40;;;;;;;-0.08;100.00;98227.78;5010429;28;20224;-48
2022/02/08 00:24:34;;;;;;;5.70;2.60;;;;;;;-0.16;100.00;98241.28;4987389;28;20236;-51
2022/02/08 00:27:04;;;;;;;3.23;2.30;;;;;;;-0.06;100.00;98231.97;4995655;28;20212;-50
2022/02/08 00:29:34;;;;;;;2.67;2.20;;;;;;;-0.05;100.00;98240.63;5003732;28;20760;-49
2022/02/08 00:32:03;;;;;;;3.30;2.20;;;;;;;0.05;100.00;98246.13;4998154;28;21087;-50
2022/02/08 00:34:32;;;;;;;3.63;2.10;;;;;;;0.00;100.00;98241.22;5013736;28;20711;-50
2022/02/08 00:37:00;;;;;;;9.73;3.13;;;;;;;0.09;100.00;98238.03;5011220;28;20291;-48
2022/02/08 00:39:30;;;;;;;3.90;3.17;;;;;;;0.30;100.00;98239.44;4999460;28;20204;-50
2022/02/08 00:42:03;;;;;;;2.80;2.10;;;;;;;0.28;100.00;98250.81;4985156;28;20243;-52
2022/02/08 00:44:37;;;;;;;5.97;2.63;;;;;;;0.18;100.00;98249.66;5012968;28;20216;-48
2022/02/08 00:47:24;;;;;;;7.33;2.70;;;;;;;0.11;100.00;98249.22;5004148;28;20232;-50
2022/02/08 00:49:53;;;;;;;2.43;2.30;;;;;;;0.11;100.00;98249.22;4994129;28;20228;-50
2022/02/08 00:52:22;;;;;;;5.27;2.30;;;;;;;0.13;100.00;98242.13;5012546;28;20779;-45
2022/02/08 00:54:51;;;;;;;3.23;2.63;;;;;;;-0.05;100.00;98244.06;4996161;28;20460;-50
2022/02/08 00:57:19;;;;;;;2.50;2.30;;;;;;;-0.09;100.00;98258.22;4977946;28;20319;-52
2022/02/08 00:59:48;;;;;;;2.00;1.90;;;;;;;-0.30;100.00;98252.50;5010546;28;20226;-51
2022/02/08 01:02:18;;;;;;;2.93;1.90;;;;;;;-0.31;100.00;98258.63;5007789;28;20231;-50
2022/02/08 01:04:52;;;;;;;3.03;2.57;;;;;;;-0.51;100.00;98260.59;4971403;28;20208;-54
2022/02/08 01:07:21;;;;;;;2.37;2.23;;;;;;;-0.53;100.00;98254.63;5010695;28;20442;-50
2022/02/08 01:09:53;;;;;;;2.83;2.27;;;;;;;-0.89;100.00;98261.84;5012408;28;20207;-50
2022/02/08 01:12:23;;;;;;;2.83;2.00;;;;;;;-0.92;100.00;98258.56;4968290;28;20224;-52
2022/02/08 01:14:53;;;;;;;3.53;2.50;;;;;;;-1.10;100.00;98261.25;5004260;28;20311;-53
2022/02/08 01:17:25;;;;;;;2.30;2.13;;;;;;;-1.20;100.00;98265.25;4976427;28;20302;-47
2022/02/08 01:19:59;;;;;;;3.20;2.17;;;;;;;-1.31;100.00;98269.28;4979915;28;20597;-50
2022/02/08 01:22:27;;;;;;;3.70;2.23;;;;;;;-1.33;100.00;98259.88;5001121;28;20788;-52
2022/02/08 01:24:56;;;;;;;9.93;2.33;;;;;;;-1.34;100.00;98269.47;5013777;28;20686;-51
2022/02/08 01:27:28;;;;;;;4.93;2.10;;;;;;;-1.48;100.00;98262.38;4959026;28;21149;-50
2022/02/08 01:29:59;;;;;;;3.27;2.33;;;;;;;-1.61;100.00;98266.56;5012278;28;20735;-52
2022/02/08 01:32:51;;;;;;;2.77;2.33;;;;;;;-1.72;100.00;98263.66;4996475;28;21208;-47
2022/02/08 01:35:30;;;;;;;5.30;2.40;;;;;;;-1.78;100.00;98263.06;4988234;28;20315;-50
2022/02/08 01:38:03;;;;;;;4.53;2.70;;;;;;;-1.84;100.00;98268.59;4998187;28;20239;-52
2022/02/08 01:40:51;;;;;;;2.93;2.63;;;;;;;-1.70;100.00;98257.50;4997170;28;20197;-48
2022/02/08 01:46:13;;;;;;;4.33;2.90;;;;;;;-1.92;100.00;98262.97;4993052;28;20420;-50
2022/02/08 01:48:49;;;;;;;2.40;2.20;;;;;;;-1.90;100.00;98258.53;4995694;28;20969;-48
2022/02/08 01:51:17;;;;;;;3.90;2.77;;;;;;;-1.89;100.00;98265.41;4965384;28;20568;-44
2022/02/08 01:53:46;;;;;;;2.30;2.10;;;;;;;-1.94;100.00;98273.41;5013403;28;20699;-49
2022/02/08 01:56:14;;;;;;;3.00;2.70;;;;;;;-1.86;100.00;98260.03;5010451;28;20299;-48
2022/02/08 01:58:42;;;;;;;3.00;2.57;;;;;;;-1.77;100.00;98266.53;4954568;28;20730;-47
2022/02/08 02:01:11;;;;;;;2.60;2.40;;;;;;;-1.89;100.00;98265.41;5012410;28;20691;-49
2022/02/08 02:03:40;;;;;;;6.73;3.07;;;;;;;-1.85;100.00;98260.91;4989099;28;20519;-50
2022/02/08 02:06:30;;;;;;;4.63;2.83;;;;;;;-1.65;100.00;98260.69;4986255;28;20220;-49
2022/02/08 02:08:58;;;;;;;2.47;2.27;;;;;;;-1.68;100.00;98271.25;5002379;28;20211;-50
2022/02/08 02:11:26;;;;;;;4.80;2.87;;;;;;;-1.52;100.00;98268.69;5009576;28;20224;-52
2022/02/08 02:13:56;;;;;;;2.93;2.73;;;;;;;-1.58;100.00;98279.41;4991069;28;20295;-51
2022/02/08 02:16:34;;;;;;;9.03;3.13;;;;;;;-1.56;100.00;98271.50;4973231;28;20218;-50
2022/02/08 02:19:03;;;;;;;4.40;2.50;;;;;;;-1.66;100.00;98260.78;4990005;28;20692;-51
2022/02/08 02:21:34;;;;;;;2.87;2.40;;;;;;;-1.54;100.00;98262.72;4987583;28;20227;-51
2022/02/08 02:24:04;;;;;;;3.90;2.10;;;;;;;-1.49;100.00;98265.09;4995479;28;20236;-50
2022/02/08 02:26:32;;;;;;;3.40;2.50;;;;;;;-1.30;100.00;98254.53;5008913;28;20295;-46
2022/02/08 02:29:00;;;;;;;4.30;2.40;;;;;;;-1.26;100.00;98265.59;4996580;28;20314;-50
2022/02/08 02:31:28;;;;;;;3.73;2.40;;;;;;;-1.39;100.00;98262.81;4978496;28;20298;-47
2022/02/08 02:33:56;;;;;;;2.93;2.73;;;;;;;-1.26;100.00;98261.25;4995421;28;20546;-53
2022/02/08 02:36:24;;;;;;;3.60;2.40;;;;;;;-1.35;100.00;98251.31;5009373;28;20307;-46
2022/02/08 02:38:53;;;;;;;3.40;2.23;;;;;;;-1.21;100.00;98256.66;4981282;28;20493;-48
2022/02/08 02:41:23;;;;;;;4.27;3.17;;;;;;;-1.21;100.00;98259.25;5010534;28;20327;-50
2022/02/08 02:43:51;;;;;;;3.53;2.57;;;;;;;-1.06;100.00;98246.31;5009873;28;20239;-53
2022/02/08 02:46:21;;;;;;;2.30;2.10;;;;;;;-0.89;100.00;98237.56;4965615;28;20216;-50
2022/02/08 02:48:49;;;;;;;3.20;2.43;;;;;;;-0.97;100.00;98245.78;5009353;28;20724;-51
2022/02/08 02:51:17;;;;;;;2.83;2.43;;;;;;;-1.02;100.00;98246.06;4996118;28;20334;-51
2022/02/08 02:53:45;;;;;;;2.20;2.07;;;;;;;-0.89;100.00;98246.22;4968201;28;20335;-50
2022/02/08 02:56:14;;;;;;;6.00;2.80;;;;;;;-0.93;100.00;98247.34;5009952;28;20302;-46
2022/02/08 02:58:43;;;;;;;5.27;2.33;;;;;;;-0.66;100.00;98244.09;5008079;28;20609;-50
2022/02/08 03:01:23;;;;;;;3.97;2.73;;;;;;;-0.65;100.00;98248.38;4998613;28;20316;-46
2022/02/08 03:04:06;;;;;;;3.13;2.40;;;;;;;-0.74;100.00;98254.09;4984480;28;20212;-53
2022/02/08 03:17:56;;;;;;;2.20;2.00;;;;;;;-0.40;100.00;98256.53;4977019;28;20489;-48
2022/02/08 03:20:25;;;;;;;5.17;2.30;;;;;;;-0.14;100.00;98247.22;5011829;28;20236;-47
2022/02/08 03:22:53;;;;;;;4.97;2.20;;;;;;;-0.16;100.00;98259.50;4978315;28;21028;-47
2022/02/08 03:25:21;;;;;;;4.73;2.27;;;;;;;-0.19;100.00;98252.69;5001858;28;20304;-47
2022/02/08 03:27:49;;;;;;;2.07;1.97;;;;;;;-0.24;100.00;98256.47;5010924;28;20196;-48
2022/02/08 03:30:19;;;;;;;3.20;2.57;;;;;;;-0.16;100.00;98264.72;5009434;28;20235;-49
2022/02/08 03:32:47;;;;;;;6.17;2.73;;;;;;;-0.01;100.00;98262.94;4962353;28;22129;-50
2022/02/08 03:35:16;;;;;;;2.27;2.07;;;;;;;-0.02;100.00;98272.56;5014163;28;20293;-47
2022/02/08 03:37:53;;;;;;;7.07;2.27;;;;;;;0.19;100.00;98258.34;4977540;28;20235;-49
2022/02/08 03:40:36;;;;;;;3.83;2.90;;;;;;;0.15;100.00;98265.50;5014269;28;20299;-48
2022/02/08 03:43:15;;;;;;;2.37;2.10;;;;;;;0.32;100.00;98259.25;5011187;28;20293;-48
2022/02/08 03:45:48;;;;;;;5.37;2.23;;;;;;;0.24;100.00;98249.31;5010695;28;20283;-52
2022/02/08 03:48:19;;;;;;;2.43;2.20;;;;;;;0.21;100.00;98261.69;5001972;28;20723;-49
2022/02/08 03:50:52;;;;;;;2.27;2.07;;;;;;;0.03;100.00;98261.00;4981008;28;20309;-46
2022/02/08 03:53:20;;;;;;;2.53;2.33;;;;;;;0.12;100.00;98263.91;4976538;28;20666;-48
2022/02/08 03:55:49;;;;;;;4.00;2.27;;;;;;;0.13;100.00;98273.41;5011577;28;20303;-49
2022/02/08 03:58:18;;;;;;;2.67;2.13;;;;;;;0.02;100.00;98269.75;5001438;28;20672;-47
2022/02/08 04:01:03;;;;;;;4.87;2.50;;;;;;;0.05;100.00;98269.59;5017357;28;20254;-51
2022/02/08 04:03:34;;;;;;;2.17;2.07;;;;;;;-0.09;100.00;98265.19;4995705;28;20697;-52
2022/02/08 04:06:03;;;;;;;2.67;2.20;;;;;;;0.06;100.00;98277.31;5023041;28;20213;-47
2022/02/08 04:08:34;;;;;;;5.63;2.97;;;;;;;-0.08;100.00;98265.09;5000656;28;20650;-48
2022/02/08 04:11:02;;;;;;;2.67;2.40;;;;;;;0.01;100.00;98274.16;5008393;28;20236;-47
2022/02/08 04:13:37;;;;;;;3.00;2.17;;;;;;;0.00;100.00;98288.09;4992032;28;20323;-46
2022/02/08 04:16:11;;;;;;;10.47;2.53;;;;;;;0.05;100.00;98274.78;5015112;28;20295;-48
2022/02/08 04:32:41;;;;;;;2.43;2.10;;;;;;;0.30;100.00;98278.56;5011271;28;20323;-53
2022/02/08 04:35:39;;;;;;;3.27;2.47;;;;;;;0.31;100.00;98273.22;4996808;28;20216;-51
2022/02/08 04:38:22;;;;;;;2.63;1.90;;;;;;;0.32;100.00;98274.09;5014202;28;20638;-49
2022/02/08 04:41:01;;;;;;;4.30;2.37;;;;;;;0.21;100.00;98267.75;4972728;28;20259;-49
2022/02/08 04:43:40;;;;;;;2.63;2.43;;;;;;;0.17;100.00;98292.28;4997291;28;20293;-47
2022/02/08 04:46:19;;;;;;;5.10;3.20;;;;;;;0.33;100.00;98291.41;5012810;28;20211;-46
2022/02/08 04:48:53;;;;;;;2.43;2.23;;;;;;;0.24;100.00;98298.00;4999133;28;20209;-50
2022/02/08 04:51:28;;;;;;;3.07;2.77;;;;;;;0.28;100.00;98294.28;4970958;28;20846;-49
2022/02/08 04:54:08;;;;;;;2.80;2.60;;;;;;;0.22;100.00;98303.31;5012876;28;20200;-45
2022/02/08 04:59:38;;;;;;;4.73;2.43;;;;;;;0.31;100.00;98291.47;4983994;28;20611;-47
2022/02/08 05:49:23;;;;;;;4.03;2.63;;;;;;;0.33;100.00;98292.22;5006658;28;20507;-45
2022/02/08 05:54:53;;;;;;;4.40;2.77;;;;;;;0.45;100.00;98282.00;5011625;28;20333;-48
2022/02/08 05:57:22;;;;;;;3.80;2.37;;;;;;;0.49;100.00;98278.28;4976406;28;20216;-51
2022/02/08 05:59:51;;;;;;;8.07;2.40;;;;;;;0.36;100.00;98286.00;4991848;28;20217;-48
2022/02/08 06:02:21;;;;;;;4.57;2.70;;;;;;;0.28;100.00;98284.69;4996619;28;20254;-53
2022/02/08 06:04:49;;;;;;;5.67;2.63;;;;;;;0.26;100.00;98291.78;5009903;28;20317;-52
2022/02/08 06:07:21;;;;;;;3.03;2.10;;;;;;;0.30;100.00;98291.59;4994825;28;20422;-51
2022/02/08 06:09:53;;;;;;;3.30;2.53;;;;;;;0.30;100.00;98291.59;5011919;28;20581;-48
2022/02/08 06:12:25;;;;;;;3.27;2.70;;;;;;;0.23;100.00;98291.97;4972702;28;20718;-49
2022/02/08 06:14:58;;;;;;;3.93;2.23;;;;;;;0.21;100.00;98300.78;4979182;28;20366;-51
2022/02/08 06:17:27;;;;;;;15.33;10.20;;;;;;;0.26;100.00;98299.59;4993961;28;20209;-48
2022/02/08 06:19:56;;;;;;;12.23;8.10;;;;;;;0.52;100.00;98299.78;4997376;28;20731;-48
2022/02/08 06:22:25;;;;;;;3.50;2.97;;;;;;;0.35;100.00;98298.19;4996046;28;20240;-54
2022/02/08 06:24:53;;;;;;;2.80;2.33;;;;;;;0.33;100.00;98291.41;5010515;28;20212;-50
2022/02/08 06:27:29;;;;;;;2.93;2.73;;;;;;;0.43;100.00;98285.56;4972389;28;20502;-51
2022/02/08 06:29:57;;;;;;;4.40;2.33;;;;;;;0.63;100.00;98301.75;4988511;28;20204;-46
2022/02/08 06:32:26;;;;;;;3.03;1.93;;;;;;;0.46;100.00;98304.53;5007260;28;21156;-49
2022/02/08 06:34:56;;;;;;;5.33;2.77;;;;;;;0.48;100.00;98303.50;4996389;28;20243;-44
2022/02/08 06:37:27;;;;;;;5.27;2.70;;;;;;;0.45;100.00;98301.09;4982511;28;20729;-48
2022/02/08 06:39:56;;;;;;;2.30;2.17;;;;;;;0.49;100.00;98289.53;5012225;28;20212;-46
2022/02/08 06:42:26;;;;;;;4.20;2.90;;;;;;;0.57;100.00;98308.19;5008337;28;20398;-49
2022/02/08 06:44:54;;;;;;;6.20;3.13;;;;;;;0.61;100.00;98302.78;4952051;28;20216;-46
2022/02/08 06:47:22;;;;;;;3.40;2.47;;;;;;;0.61;100.00;98301.00;5006935;28;20696;-47
2022/02/08 06:49:51;;;;;;;3.30;2.10;;;;;;;0.62;100.00;98300.06;4995883;28;20212;-48
2022/02/08 06:52:19;;;;;;;5.40;2.93;;;;;;;0.55;100.00;98299.59;4981921;28;20677;-48
2022/02/08 06:54:49;;;;;;;6.70;2.50;;;;;;;0.67;100.00;98302.41;5008350;28;20327;-53
2022/02/08 06:57:18;;;;;;;4.43;2.80;;;;;;;0.64;100.00;98298.19;5008873;28;20201;-47
2022/02/08 06:59:51;;;;;;;4.27;3.00;;;;;;;0.67;100.00;98305.00;4973336;28;20707;-52
2022/02/08 07:02:20;;;;;;;3.40;3.03;;;;;;;0.62;100.00;98299.25;5006717;28;20315;-44
2022/02/08 07:04:48;;;;;;;5.53;2.63;;;;;;;0.50;100.00;98309.47;5014866;28;20296;-49
2022/02/08 07:07:16;;;;;;;4.40;3.40;;;;;;;0.56;100.00;98303.88;4996328;28;20448;-49
2022/02/08 07:09:45;;;;;;;6.53;3.63;;;;;;;0.39;100.00;98304.91;5000227;28;20303;-52
2022/02/08 07:12:14;;;;;;;5.47;4.40;;;;;;;0.31;100.00;98316.72;5011314;28;20712;-49
2022/02/08 07:14:44;;;;;;;4.40;2.60;;;;;;;0.37;100.00;98317.19;4973358;28;20220;-47
2022/02/08 07:17:14;;;;;;;5.53;2.23;;;;;;;0.36;100.00;98314.69;5011209;28;20204;-47
2022/02/08 07:19:42;;;;;;;4.43;2.40;;;;;;;0.39;100.00;98309.28;5013823;28;20327;-46
2022/02/08 07:22:10;;;;;;;6.23;3.40;;;;;;;0.46;100.00;98310.59;4996194;28;20301;-47
2022/02/08 07:24:38;;;;;;;3.20;2.33;;;;;;;0.49;100.00;98330.44;4978472;28;20702;-46
2022/02/08 07:27:08;;;;;;;3.27;2.40;;;;;;;0.42;100.00;98329.97;5014848;28;20287;-51
2022/02/08 07:29:38;;;;;;;7.03;6.23;;;;;;;0.45;100.00;98337.59;5008230;28;20204;-50
2022/02/08 07:32:07;;;;;;;5.97;2.63;;;;;;;0.40;100.00;98337.03;4972926;28;20270;-48
2022/02/08 07:34:43;;;;;;;3.17;2.50;;;;;;;0.48;100.00;98328.75;5011831;28;20219;-48
2022/02/08 07:37:16;;;;;;;3.57;2.60;;;;;;;0.65;100.00;98325.97;4993638;28;20740;-48
2022/02/08 07:39:47;;;;;;;5.77;2.60;;;;;;;0.61;100.00;98323.66;5011676;28;20282;-49
2022/02/08 07:42:16;;;;;;;2.53;2.33;;;;;;;0.67;100.00;98320.66;4999254;28;20312;-45
2022/02/08 07:44:45;;;;;;;3.97;2.60;;;;;;;0.74;100.00;98329.78;5001063;28;20234;-51
2022/02/08 07:47:13;;;;;;;4.63;2.13;;;;;;;0.85;100.00;98321.31;4960755;28;20751;-49
2022/02/08 07:49:43;;;;;;;3.23;1.83;;;;;;;1.00;100.00;98330.78;5012055;28;20204;-47
2022/02/08 07:52:11;;;;;;;3.43;2.30;;;;;;;0.91;100.00;98322.69;4998202;28;21460;-48
2022/02/08 07:54:39;;;;;;;3.40;2.57;;;;;;;1.11;100.00;98316.22;5013315;28;20220;-49
2022/02/08 07:57:08;;;;;;;2.83;2.57;;;;;;;1.18;100.00;98316.69;5011892;28;20410;-50
2022/02/08 07:59:36;;;;;;;6.10;4.13;;;;;;;1.12;100.00;98302.25;5010046;28;20200;-48
2022/02/08 08:02:04;;;;;;;5.27;2.30;;;;;;;0.82;100.00;98316.28;4950051;28;21535;-50
2022/02/08 08:04:32;;;;;;;4.67;2.27;;;;;;;0.95;100.00;98317.19;5011686;28;20200;-48
2022/02/08 08:07:02;;;;;;;4.00;2.47;;;;;;;0.78;100.00;98320.84;4995562;28;20293;-49
2022/02/08 08:09:30;;;;;;;4.60;2.70;;;;;;;0.79;100.00;98329.53;5013158;28;20291;-46
2022/02/08 08:12:00;;;;;;;3.00;2.60;;;;;;;0.91;100.00;98325.28;5008792;28;20744;-50
2022/02/08 08:14:31;;;;;;;3.63;2.77;;;;;;;1.20;100.00;98335.69;5013653;28;20251;-50
2022/02/08 08:17:14;;;;;;;3.73;2.70;;;;;;;1.58;100.00;98333.28;4996740;28;20782;-50
2022/02/08 08:19:42;;;;;;;4.73;2.17;;;;;;;1.76;100.00;98329.56;4973463;28;20426;-49
2022/02/08 08:22:12;;;;;;;3.43;2.50;;;;;;;2.05;100.00;98332.03;5015251;28;20259;-51
2022/02/08 08:24:40;;;;;;;4.23;2.53;;;;;;;2.30;100.00;98333.88;4977592;28;20614;-50
2022/02/08 08:27:09;;;;;;;2.20;2.10;;;;;;;2.17;100.00;98328.63;5027343;28;20877;-49
2022/02/08 08:29:37;;;;;;;4.47;3.03;;;;;;;2.12;100.00;98320.25;5024025;28;20584;-47
2022/02/08 08:32:06;;;;;;;4.90;2.90;;;;;;;2.06;100.00;98318.03;5018687;28;20228;-51
2022/02/08 08:34:35;;;;;;;5.07;2.50;;;;;;;1.97;100.00;98327.34;4969279;28;20227;-51
2022/02/08 08:37:04;;;;;;;3.53;2.67;;;;;;;1.85;100.00;98324.56;5014459;28;20208;-47
2022/02/08 08:39:39;;;;;;;2.73;2.30;;;;;;;1.73;100.00;98330.59;4977973;28;20351;-48
2022/02/08 08:42:21;;;;;;;2.27;2.17;;;;;;;2.03;100.00;98327.75;5015085;28;20606;-51
2022/02/08 08:50:44;;;;;;;4.40;2.13;;;;;;;2.07;100.00;98317.94;5009183;28;20305;-48
2022/02/08 08:53:12;;;;;;;4.77;2.50;;;;;;;2.17;100.00;98318.16;4997990;28;20220;-49
2022/02/08 08:55:42;;;;;;;5.60;2.53;;;;;;;2.17;100.00;98313.75;4993892;28;22667;-49
2022/02/08 08:58:10;;;;;;;3.23;2.93;;;;;;;2.20;100.00;98320.56;5013039;28;20223;-49
2022/02/08 09:00:38;;;;;;;5.70;2.30;;;;;;;1.96;100.00;98316.03;5009470;28;20488;-49
2022/02/08 09:03:06;;;;;;;3.93;2.83;;;;;;;1.95;100.00;98316.13;5013285;28;20660;-51
2022/02/08 09:05:34;;;;;;;4.40;2.97;;;;;;;2.07;100.00;98317.94;4969895;28;20715;-48
2022/02/08 09:08:04;;;;;;;5.20;2.70;;;;;;;2.15;100.00;98325.28;5013739;28;20676;-52
2022/02/08 09:10:42;;;;;;;3.73;2.97;;;;;;;2.27;100.00;98334.91;4974064;28;20581;-46
2022/02/08 09:13:21;;;;;;;3.03;2.53;;;;;;;2.23;100.00;98336.06;5013507;28;20661;-52
2022/02/08 09:15:57;;;;;;;2.87;2.33;;;;;;;2.25;100.00;98334.16;5010157;28;20424;-48
2022/02/08 09:21:42;;;;;;;4.83;2.20;;;;;;;2.25;100.00;98339.41;5007575;28;20545;-47
2022/02/08 09:30:03;;;;;;;2.20;2.00;;;;;;;2.45;100.00;98337.19;4927589;28;20220;-49
2022/02/08 09:32:42;;;;;;;5.53;2.63;;;;;;;2.58;100.00;98345.91;4947028;28;20233;-49
2022/02/08 09:35:11;;;;;;;5.73;2.90;;;;;;;2.55;100.00;98338.28;4909368;28;20331;-50
2022/02/08 09:37:39;;;;;;;3.13;2.83;;;;;;;2.48;100.00;98344.03;4947743;28;20879;-49
2022/02/08 09:40:09;;;;;;;7.10;3.53;;;;;;;2.39;100.00;98345.47;4934955;28;20711;-48
2022/02/08 09:42:40;;;;;;;5.80;3.13;;;;;;;2.35;100.00;98338.78;4947460;28;20313;-48
2022/02/08 09:45:14;;;;;;;5.47;2.47;;;;;;;2.54;100.00;98339.22;4950927;28;20198;-47
2022/02/08 09:47:50;;;;;;;7.03;2.70;;;;;;;2.62;100.00;98337.84;4945216;28;20332;-49
2022/02/08 09:50:22;;;;;;;4.37;2.80;;;;;;;2.54;100.00;98333.97;4909409;28;20218;-48
2022/02/08 09:52:53;;;;;;;5.30;2.97;;;;;;;2.41;100.00;98335.75;4946557;28;20669;-49
2022/02/08 09:55:23;;;;;;;4.07;2.47;;;;;;;2.24;100.00;98335.09;4945077;28;20366;-50
2022/02/08 09:57:52;;;;;;;3.13;2.10;;;;;;;2.23;100.00;98330.81;4938701;28;20472;-47
2022/02/08 10:00:22;;;;;;;2.60;2.30;;;;;;;2.43;100.00;98332.09;4952021;28;20433;-48
2022/02/08 10:02:51;;;;;;;5.13;4.10;;;;;;;2.69;100.00;98334.72;5010092;28;20314;-51
2022/02/08 10:05:19;;;;;;;5.77;3.30;;;;;;;2.80;100.00;98333.94;5007185;28;20251;-50
2022/02/08 10:07:47;;;;;;;3.73;3.43;;;;;;;3.21;100.00;98321.53;4983272;28;20204;-50
2022/02/08 10:10:24;;;;;;;3.37;2.33;;;;;;;3.33;100.00;98322.44;5010905;28;20211;-46
2022/02/08 10:24:09;;;;;;;4.57;3.93;;;;;;;3.79;100.00;98325.28;5008965;28;20628;-47
2022/02/08 10:26:42;;;;;;;4.90;2.37;;;;;;;3.72;100.00;98324.88;4993344;28;20711;-50
2022/02/08 10:29:15;;;;;;;2.60;2.10;;;;;;;3.46;100.00;98315.34;5010753;28;20327;-53
2022/02/08 10:32:03;;;;;;;2.27;2.03;;;;;;;3.55;100.00;98313.00;5007785;28;20472;-51
2022/02/08 10:40:05;;;;;;;5.33;2.83;;;;;;;3.69;100.00;98312.00;5012564;28;20291;-49
2022/02/08 10:42:34;;;;;;;4.63;2.10;;;;;;;3.52;100.00;98303.59;4994383;28;20323;-48
2022/02/08 10:45:04;;;;;;;2.53;2.00;;;;;;;3.62;100.00;98315.09;5011543;28;20204;-47
2022/02/08 10:47:37;;;;;;;4.93;2.67;;;;;;;3.82;100.00;98285.72;5008621;28;20306;-47
2022/02/08 10:50:08;;;;;;;4.73;2.10;;;;;;;4.19;100.00;98314.44;5011330;28;20615;-49
2022/02/08 10:52:38;;;;;;;2.90;2.67;;;;;;;4.28;100.00;98303.25;4966956;28;20436;-47
2022/02/08 10:55:17;;;;;;;8.37;2.23;;;;;;;4.43;100.00;98297.81;5011110;28;20311;-48
2022/02/08 10:57:53;;;;;;;2.20;2.10;;;;;;;4.34;100.00;98296.72;4993959;28;20216;-48
2022/02/08 11:00:27;;;;;;;3.20;2.60;;;;;;;4.77;100.00;98288.16;5009210;28;21039;-45
2022/02/08 11:03:02;;;;;;;2.37;2.17;;;;;;;5.00;100.00;98282.03;5010649;28;20239;-45
2022/02/08 11:05:41;;;;;;;4.43;2.17;;;;;;;4.82;100.00;98284.31;5008070;28;20734;-49
2022/02/08 11:08:32;;;;;;;3.20;2.60;;;;;;;4.37;100.00;98272.88;4973319;28;20698;-45
2022/02/08 11:11:25;;;;;;;2.40;1.80;;;;;;;4.84;100.00;98274.53;5009824;28;20649;-46
2022/02/08 11:14:09;;;;;;;4.10;3.37;;;;;;;5.49;100.00;98274.66;4993900;28;21195;-52
2022/02/08 11:16:58;;;;;;;2.10;1.97;;;;;;;5.09;100.00;98272.59;5006470;28;20271;-49
2022/02/08 11:19:45;;;;;;;1.93;1.63;;;;;;;5.09;100.00;98273.41;5007801;28;21039;-46
2022/02/08 11:22:27;;;;;;;3.13;2.23;;;;;;;5.23;100.00;98274.94;5010411;28;20525;-46
2022/02/08 11:25:03;;;;;;;2.83;2.20;;;;;;;5.27;100.00;98280.81;4967241;28;20795;-48
2022/02/08 11:27:38;;;;;;;4.43;2.40;;;;;;;5.36;100.00;98280.06;5006925;28;20285;-47
2022/02/08 11:30:13;;;;;;;3.47;2.07;;;;;;;5.37;100.00;98273.84;4995878;28;20243;-50
2022/02/08 11:32:57;;;;;;;2.93;1.87;;;;;;;5.48;100.00;98281.69;5004195;28;20507;-48
2022/02/08 11:47:00;;;;;;;2.83;2.33;;;;;;;4.94;100.00;98275.50;4994185;28;20762;-50
2022/02/08 11:49:46;;;;;;;4.47;2.27;;;;;;;4.99;100.00;98268.09;5011758;28;20295;-51
2022/02/08 11:52:33;;;;;;;3.97;2.10;;;;;;;5.00;100.00;98275.00;5013122;28;20337;-46
2022/02/08 12:00:44;;;;;;;3.30;2.40;;;;;;;5.04;100.00;98259.81;4953848;28;20968;-48
2022/02/08 12:03:42;;;;;;;3.67;2.47;;;;;;;5.39;100.00;98265.84;4971947;28;20780;-48
2022/02/08 12:06:30;;;;;;;2.27;1.97;;;;;;;5.56;100.00;98260.03;4971852;28;20210;-49
2022/02/08 12:09:09;;;;;;;6.50;2.47;;;;;;;5.33;100.00;98252.25;4971287;28;20923;-49
2022/02/08 12:11:59;;;;;;;2.40;1.90;;;;;;;5.56;100.00;98256.59;4929698;28;20523;-47
2022/02/08 12:34:23;;;;;;;2.83;2.60;;;;;;;5.83;100.00;98236.84;4952737;28;20210;-49
2022/02/08 12:49:08;;;;;;;2.00;1.87;;;;;;;5.70;100.00;98229.16;4932812;28;20254;-52
2022/02/08 12:57:16;;;;;;;2.60;2.30;;;;;;;5.69;100.00;98232.75;4958227;28;20321;-47
2022/02/08 13:02:49;;;;;;;3.60;2.80;;;;;;;5.42;100.00;98226.16;4946898;28;20421;-49
2022/02/08 13:20:05;;;;;;;4.40;2.60;;;;;;;5.44;100.00;98217.19;4824315;29;20332;-49
2022/02/08 14:01:51;;;;;;;3.60;2.30;;;;;;;6.28;100.00;98212.09;4927628;28;20964;-47
2022/02/08 14:07:18;;;;;;;3.13;2.00;;;;;;;6.39;100.00;98214.63;4943934;28;20249;-50
2022/02/08 14:10:14;;;;;;;1.73;1.37;;;;;;;6.39;100.00;98214.63;4965410;28;20246;-50
2022/02/08 14:13:26;;;;;;;4.30;2.43;;;;;;;6.36;100.00;98212.25;4961768;28;20517;-50
2022/02/08 14:18:52;;;;;;;2.40;1.80;;;;;;;6.42;100.00;98224.06;5009164;28;20341;-45
2022/02/08 14:21:34;;;;;;;2.27;2.00;;;;;;;6.22;100.00;98213.44;5009906;28;20312;-53
2022/02/08 14:24:15;;;;;;;2.60;1.70;;;;;;;6.18;100.00;98217.28;5003514;28;20623;-51
2022/02/08 14:32:28;;;;;;;3.57;1.83;;;;;;;5.83;100.00;98221.91;4969891;28;20708;-47
2022/02/08 14:35:29;;;;;;;2.93;2.00;;;;;;;5.78;100.00;98214.41;5007818;28;20283;-52
2022/02/08 14:49:47;;;;;;;1.43;1.27;;;;;;;5.39;100.00;98218.53;4996556;28;21425;-51
2022/02/08 14:58:02;;;;;;;2.83;1.67;;;;;;;5.28;100.00;98227.28;5007315;28;20307;-50
2022/02/08 15:05:25;;;;;;;5.13;1.57;;;;;;;5.20;100.00;98228.75;4995110;28;20215;-51
2022/02/08 15:06:24;;;;;;;1.90;1.73;;;;;;;5.29;100.00;98226.34;4994305;28;20240;-49
2022/02/08 15:08:53;;;;;;;2.50;1.87;;;;;;;5.25;100.00;98217.03;4984991;28;20895;-50
2022/02/08 15:11:28;;;;;;;3.43;1.80;;;;;;;5.19;100.00;98223.59;5011795;28;20232;-46
2022/02/08 15:14:00;;;;;;;1.80;1.60;;;;;;;5.02;100.00;98227.59;5008213;28;20262;-48
2022/02/08 15:16:29;;;;;;;3.17;2.90;;;;;;;5.24;100.00;98218.81;5006261;28;20319;-51
2022/02/08 15:18:57;;;;;;;1.93;1.70;;;;;;;5.14;100.00;98221.38;4975360;28;21503;-49
2022/02/08 15:21:29;;;;;;;2.63;2.30;;;;;;;5.05;100.00;98225.56;4996191;28;20357;-49
2022/02/08 15:23:58;;;;;;;1.40;1.40;;;;;;;4.99;100.00;98220.81;5011871;28;20712;-51
2022/02/08 15:26:26;;;;;;;3.57;1.90;;;;;;;4.93;100.00;98203.75;4990502;28;20682;-53
2022/02/08 15:28:55;;;;;;;5.57;1.47;;;;;;;5.04;100.00;98223.91;4978349;28;20691;-52
2022/02/08 15:31:24;;;;;;;1.80;1.57;;;;;;;5.03;100.00;98231.88;4988148;28;20268;-50
2022/02/08 15:33:56;;;;;;;2.23;2.00;;;;;;;4.99;100.00;98219.97;4976139;28;22274;-51
2022/02/08 15:36:24;;;;;;;2.40;2.20;;;;;;;5.06;100.00;98221.13;4997691;28;20299;-49
2022/02/08 15:38:54;;;;;;;4.27;1.97;;;;;;;5.10;100.00;98219.09;4975931;28;20239;-48
2022/02/08 15:41:23;;;;;;;3.50;2.37;;;;;;;5.01;100.00;98220.66;4997034;28;20397;-52
2022/02/08 15:43:51;;;;;;;3.30;1.97;;;;;;;5.00;100.00;98222.47;5007487;28;20232;-51
2022/02/08 15:46:23;;;;;;;2.93;2.37;;;;;;;4.88;100.00;98223.44;5009200;28;20262;-48
2022/02/08 15:48:54;;;;;;;2.60;1.90;;;;;;;4.86;100.00;98222.72;4977151;28;21345;-51
2022/02/08 15:51:29;;;;;;;3.07;1.90;;;;;;;4.96;100.00;98220.22;4990779;28;20621;-52
2022/02/08 15:57:09;;;;;;;2.20;2.00;;;;;;;4.94;100.00;98225.59;4965570;28;20928;-51
2022/02/08 16:05:36;;;;;;;1.70;1.60;;;;;;;4.60;100.00;98223.84;4982189;28;20243;-52
2022/02/08 16:08:22;;;;;;;2.03;1.80;;;;;;;4.57;100.00;98229.31;4992926;28;20223;-50
2022/02/08 16:11:00;;;;;;;2.83;1.60;;;;;;;4.63;100.00;98215.72;4980426;28;20302;-50
2022/02/08 16:13:39;;;;;;;2.27;2.07;;;;;;;4.55;100.00;98226.00;4989196;28;20212;-51
2022/02/08 16:19:02;;;;;;;3.00;2.00;;;;;;;4.35;100.00;98225.72;4992527;28;20335;-49
2022/02/08 16:21:55;;;;;;;2.70;1.80;;;;;;;4.59;100.00;98223.97;4983239;28;20249;-53
2022/02/08 16:24:40;;;;;;;1.67;1.57;;;;;;;4.34;100.00;98226.69;4982901;28;20212;-54
2022/02/08 16:27:18;;;;;;;1.67;1.57;;;;;;;4.30;100.00;98233.13;4995562;28;20218;-54